Time;durP1;ratioP1;P1;durP2;ratioP2;P2;SDS_P1;SDS_P2;PMS_P1;PMS_P2;Temp;Humidity;BMP_temperature;BMP_pressure;BME280_temperature;BME280_humidity;BME280_pressure;Samples;Min_cycle;Max_cycle;Signal;HPM_P1;HPM_P2
2022/12/05 00:01:31;;;;;;;10.23;5.90;;;7.00;99.90;;;6.81;72.45;95888.16;5073969;28;20507;-54
2022/12/05 00:04:00;;;;;;;9.50;6.47;;;7.00;99.90;;;6.84;72.64;95891.53;5081964;28;20473;-53
2022/12/05 00:06:28;;;;;;;5.93;5.27;;;7.00;99.90;;;6.85;72.20;95891.44;5077546;28;20453;-56
2022/12/05 00:08:57;;;;;;;8.73;6.57;;;7.00;99.90;;;6.85;72.38;95890.59;5075002;28;20596;-56
2022/12/05 00:11:25;;;;;;;7.30;5.70;;;7.00;99.90;;;6.84;72.30;95887.13;5074365;28;20454;-53
2022/12/05 00:13:53;;;;;;;7.57;6.17;;;7.00;99.90;;;6.84;72.07;95891.53;5080749;28;20442;-57
2022/12/05 00:16:22;;;;;;;9.80;6.13;;;7.00;99.90;;;6.84;72.82;95896.78;5078369;28;21058;-53
2022/12/05 00:18:49;;;;;;;8.17;5.70;;;7.00;99.90;;;6.84;72.67;95894.16;5077996;28;20507;-55
2022/12/05 00:21:17;;;;;;;6.60;5.97;;;7.00;99.90;;;6.84;72.12;95902.84;5078713;28;20454;-56
2022/12/05 00:23:45;;;;;;;8.10;6.47;;;7.00;99.90;;;6.85;72.61;95890.59;5075633;28;20458;-55
2022/12/05 00:26:13;;;;;;;6.87;6.17;;;7.00;99.90;;;6.83;72.79;95890.69;5074878;28;20993;-54
2022/12/05 00:28:41;;;;;;;11.57;7.00;;;7.00;99.90;;;6.85;72.25;95903.66;5075680;28;20493;-56
2022/12/05 00:31:09;;;;;;;7.10;5.60;;;7.00;99.90;;;6.86;72.42;95906.19;5082616;28;20485;-54
2022/12/05 00:33:37;;;;;;;11.03;5.90;;;7.00;99.90;;;6.87;72.81;95904.44;5080033;28;20821;-55
2022/12/05 00:36:04;;;;;;;8.80;6.20;;;7.00;99.90;;;6.88;73.02;95916.56;5080906;28;20484;-54
2022/12/05 00:38:32;;;;;;;9.27;7.20;;;7.00;99.90;;;6.86;72.33;95908.81;5075192;28;20485;-56
2022/12/05 00:41:04;;;;;;;6.97;5.67;;;7.00;99.90;;;6.86;72.59;95910.59;5078996;28;20478;-55
2022/12/05 00:43:32;;;;;;;7.57;5.40;;;7.00;99.90;;;6.85;72.21;95908.88;5083350;28;20553;-55
2022/12/05 00:46:02;;;;;;;9.40;7.17;;;7.00;99.90;;;6.82;72.95;95905.53;5084919;28;20474;-54
2022/12/05 00:48:29;;;;;;;6.77;5.90;;;7.00;99.90;;;6.81;72.31;95906.47;5085016;28;21048;-54
2022/12/05 00:51:01;;;;;;;8.30;6.33;;;7.00;99.90;;;6.80;72.98;95907.41;5082719;28;20478;-58
2022/12/05 00:53:29;;;;;;;10.23;7.13;;;7.00;99.90;;;6.79;72.38;95903.09;5083070;28;20983;-54
2022/12/05 00:55:56;;;;;;;8.37;6.23;;;7.00;99.90;;;6.80;73.01;95886.50;5077852;28;20478;-56
2022/12/05 00:58:23;;;;;;;14.03;7.40;;;7.00;99.90;;;6.82;72.80;95891.63;5075812;28;21207;-55
2022/12/05 01:00:52;;;;;;;8.03;6.10;;;7.00;99.90;;;6.84;73.17;95887.13;5076447;28;20475;-53
2022/12/05 01:03:19;;;;;;;9.90;6.77;;;7.00;99.90;;;6.85;73.11;95881.00;5083215;28;20446;-54
2022/12/05 01:05:46;;;;;;;9.40;7.17;;;7.00;99.90;;;6.88;73.00;95888.66;5082070;28;20466;-57
2022/12/05 01:08:14;;;;;;;10.17;7.20;;;7.00;99.90;;;6.89;72.70;95885.09;5081672;28;20971;-55
2022/12/05 01:10:41;;;;;;;9.77;7.07;;;7.00;99.90;;;6.88;73.13;95878.19;5081485;28;20554;-55
2022/12/05 01:13:08;;;;;;;10.50;7.80;;;7.00;99.90;;;6.87;72.82;95878.28;5082258;28;20454;-55
2022/12/05 01:15:37;;;;;;;14.43;7.37;;;7.00;99.90;;;6.85;72.72;95877.50;5083925;28;20466;-54
2022/12/05 01:18:06;;;;;;;10.73;6.70;;;7.00;99.90;;;6.82;72.72;95876.78;5076567;28;20459;-56
2022/12/05 01:20:33;;;;;;;11.07;6.97;;;7.00;99.90;;;6.80;72.70;95880.41;5082558;28;20532;-55
2022/12/05 01:23:00;;;;;;;9.43;6.80;;;7.00;99.90;;;6.77;72.91;95865.75;5082643;28;20458;-57
2022/12/05 01:25:27;;;;;;;14.53;7.40;;;6.90;99.90;;;6.75;72.63;95864.16;5080605;28;20582;-54
2022/12/05 01:27:55;;;;;;;9.80;7.00;;;6.90;99.90;;;6.73;73.08;95864.25;5083308;28;20467;-55
2022/12/05 01:30:22;;;;;;;11.53;7.90;;;6.90;99.90;;;6.74;72.84;95870.31;5078693;28;20568;-54
2022/12/05 01:32:49;;;;;;;10.40;6.90;;;6.90;99.90;;;6.73;73.01;95869.47;5076642;28;20851;-53
2022/12/05 01:35:18;;;;;;;9.37;6.70;;;6.80;99.90;;;6.73;73.07;95866.88;5083896;28;21001;-54
2022/12/05 01:37:45;;;;;;;8.67;6.80;;;6.90;99.90;;;6.72;72.83;95867.78;5079880;28;20469;-54
2022/12/05 01:40:12;;;;;;;10.50;7.13;;;6.90;99.90;;;6.71;72.83;95860.91;5080302;28;20478;-53
2022/12/05 01:42:40;;;;;;;13.27;7.50;;;6.90;99.90;;;6.69;72.52;95859.28;5081289;28;20465;-56
2022/12/05 01:45:13;;;;;;;9.43;7.00;;;6.80;99.90;;;6.66;72.96;95857.69;5079059;28;20803;-54
2022/12/05 01:47:41;;;;;;;12.57;7.20;;;6.80;99.90;;;6.64;72.96;95857.78;5076134;28;20461;-53
2022/12/05 01:50:09;;;;;;;11.40;7.60;;;6.80;99.90;;;6.63;73.48;95863.09;5075744;28;20502;-55
2022/12/05 01:52:37;;;;;;;16.47;7.10;;;6.80;99.90;;;6.64;73.55;95860.41;5084705;28;20855;-54
2022/12/05 01:55:09;;;;;;;10.40;7.20;;;6.80;99.90;;;6.63;73.15;95855.25;5081055;28;20550;-55
2022/12/05 01:57:36;;;;;;;10.03;7.50;;;6.80;99.90;;;6.64;72.94;95859.56;5080109;28;20454;-56
2022/12/05 02:00:09;;;;;;;15.13;8.00;;;6.80;99.90;;;6.66;73.63;95862.91;5076201;28;20478;-53
2022/12/05 02:02:36;;;;;;;10.00;6.30;;;6.80;99.90;;;6.64;73.54;95846.50;5079341;28;20470;-56
2022/12/05 02:05:08;;;;;;;14.70;7.50;;;6.80;99.90;;;6.66;73.19;95856.88;5081117;28;20474;-58
2022/12/05 02:07:37;;;;;;;12.00;7.80;;;6.80;99.90;;;6.65;73.05;95856.03;5082790;28;20446;-55
2022/12/05 02:10:07;;;;;;;11.80;7.70;;;6.80;99.90;;;6.67;73.15;95862.00;5078051;28;21029;-63
2022/12/05 02:12:34;;;;;;;9.80;7.13;;;6.80;99.90;;;6.71;73.26;95867.88;5071480;28;20951;-58
2022/12/05 02:15:32;;;;;;;12.50;8.17;;;6.80;99.90;;;6.76;73.65;95865.84;5078921;28;21010;-54
2022/12/05 02:18:13;;;;;;;14.70;7.90;;;6.90;99.90;;;6.76;73.00;95853.59;5062706;28;20450;-56
2022/12/05 02:20:48;;;;;;;7.73;6.83;;;6.90;99.90;;;6.78;73.01;95856.13;5082557;28;20462;-55
2022/12/05 02:23:47;;;;;;;12.87;7.80;;;6.90;99.90;;;6.78;73.25;95856.97;5082193;28;20446;-54
2022/12/05 02:26:51;;;;;;;14.30;8.00;;;6.90;99.90;;;6.78;73.54;95856.97;5073195;28;20511;-58
2022/12/05 02:29:50;;;;;;;11.47;7.33;;;6.90;99.90;;;6.75;73.54;95851.91;5071700;28;20506;-56
2022/12/05 02:32:21;;;;;;;9.93;7.00;;;6.90;99.90;;;6.74;73.40;95852.88;5077613;28;20529;-56
2022/12/05 02:34:54;;;;;;;10.27;7.20;;;6.90;99.90;;;6.71;73.25;95850.44;5080059;28;20515;-55
2022/12/05 02:37:25;;;;;;;9.50;6.63;;;6.90;99.90;;;6.71;72.98;95844.34;5077566;28;20450;-56
2022/12/05 02:39:56;;;;;;;8.30;5.70;;;6.90;99.90;;;6.70;73.17;95846.13;5080852;28;20849;-56
2022/12/05 02:42:28;;;;;;;14.47;7.77;;;6.90;99.90;;;6.68;73.32;95845.41;5075964;28;21076;-55
2022/12/05 02:44:59;;;;;;;11.23;6.87;;;6.80;99.90;;;6.68;73.54;95839.31;5078867;28;20473;-55
2022/12/05 02:47:29;;;;;;;10.50;7.37;;;6.80;99.90;;;6.67;73.58;95838.47;5080741;28;20978;-57
2022/12/05 02:49:56;;;;;;;12.43;7.63;;;6.80;99.90;;;6.67;73.36;95833.25;5077751;28;20494;-54
2022/12/05 02:52:23;;;;;;;7.73;6.90;;;6.80;99.90;;;6.68;73.51;95840.16;5080328;28;20859;-55
2022/12/05 02:54:51;;;;;;;10.30;6.43;;;6.90;99.90;;;6.68;73.24;95834.94;5080221;28;20474;-55
2022/12/05 02:57:18;;;;;;;10.57;7.60;;;6.80;99.90;;;6.70;73.75;95843.53;5077729;28;20511;-55
2022/12/05 02:59:45;;;;;;;9.73;7.13;;;6.80;99.90;;;6.69;73.15;95833.97;5079589;28;20605;-55
2022/12/05 03:02:24;;;;;;;9.70;6.60;;;6.90;99.90;;;6.67;73.75;95833.25;5080887;28;20575;-56
2022/12/05 03:04:51;;;;;;;13.20;8.60;;;6.80;99.90;;;6.67;73.79;95843.69;5075715;28;20482;-55
2022/12/05 03:07:19;;;;;;;9.33;7.47;;;6.80;99.90;;;6.67;73.49;95838.47;5077222;28;20499;-55
2022/12/05 03:09:49;;;;;;;11.70;6.70;;;6.80;99.90;;;6.68;73.49;95834.06;5079474;28;20493;-54
2022/12/05 03:12:18;;;;;;;10.80;6.73;;;6.80;99.90;;;6.70;73.48;95840.91;5081649;28;20442;-53
2022/12/05 03:14:49;;;;;;;10.07;7.07;;;6.80;99.90;;;6.72;73.50;95831.19;5078192;28;20470;-55
2022/12/05 03:17:18;;;;;;;10.90;6.80;;;6.90;99.90;;;6.72;73.20;95825.13;5081207;28;20930;-59
2022/12/05 03:19:52;;;;;;;9.50;7.20;;;6.90;99.90;;;6.78;73.23;95833.44;5080098;28;20993;-55
2022/12/05 03:22:22;;;;;;;11.93;7.47;;;6.90;99.90;;;6.79;73.54;95834.28;5076008;28;20477;-55
2022/12/05 03:24:49;;;;;;;11.93;7.43;;;6.90;99.90;;;6.81;73.35;95838.47;5079797;28;20470;-55
2022/12/05 03:27:22;;;;;;;11.20;7.30;;;6.90;99.90;;;6.85;73.65;95844.38;5077569;28;20652;-55
2022/12/05 03:29:51;;;;;;;10.60;6.80;;;7.00;99.90;;;6.85;73.68;95846.13;5075111;28;20501;-56
2022/12/05 03:32:22;;;;;;;16.40;8.00;;;7.00;99.90;;;6.86;73.14;95843.44;5077567;28;20454;-54
2022/12/05 03:34:58;;;;;;;11.93;7.57;;;7.00;99.90;;;6.88;73.12;95846.81;5081776;28;20531;-57
2022/12/05 03:37:29;;;;;;;11.20;6.83;;;7.00;99.90;;;6.88;73.20;95846.81;5074929;28;20450;-58
2022/12/05 03:40:05;;;;;;;11.00;7.67;;;7.00;99.90;;;6.88;73.46;95838.09;5081091;28;20469;-56
2022/12/05 03:42:34;;;;;;;9.83;7.73;;;7.00;99.90;;;6.88;73.49;95838.09;5079783;28;20457;-55
2022/12/05 03:45:04;;;;;;;11.40;8.03;;;7.00;99.90;;;6.87;73.02;95841.69;5074437;28;20485;-56
2022/12/05 03:47:38;;;;;;;11.57;7.60;;;7.00;99.90;;;6.88;73.10;95843.34;5079164;28;20482;-55
2022/12/05 03:50:10;;;;;;;11.70;7.20;;;7.00;99.90;;;6.88;73.38;95838.09;5078251;28;20574;-55
2022/12/05 03:52:42;;;;;;;12.00;8.20;;;7.00;99.90;;;6.88;72.99;95830.25;5076470;28;20454;-55
2022/12/05 03:55:12;;;;;;;11.53;7.70;;;7.00;99.90;;;6.89;73.26;95838.00;5082173;28;20474;-56
2022/12/05 03:57:43;;;;;;;13.30;7.50;;;7.10;99.90;;;6.91;72.96;95837.91;5075568;28;20849;-55
2022/12/05 04:00:12;;;;;;;13.23;9.20;;;7.00;99.90;;;6.92;72.78;95834.38;5077389;28;20507;-54
2022/12/05 04:02:44;;;;;;;10.70;7.40;;;7.00;99.90;;;6.93;72.84;95836.06;5075627;28;20454;-56
2022/12/05 04:05:17;;;;;;;11.77;8.13;;;7.10;99.90;;;6.93;72.56;95836.06;5086743;28;20469;-53
2022/12/05 04:07:45;;;;;;;14.17;7.90;;;7.10;99.90;;;6.95;73.09;95831.56;5074147;28;21017;-56
2022/12/05 04:10:15;;;;;;;12.20;7.07;;;7.10;99.90;;;6.95;72.88;95829.78;5081819;28;20508;-55
2022/12/05 04:12:42;;;;;;;14.10;8.40;;;7.10;99.90;;;6.96;72.38;95831.47;5082660;28;20466;-55
2022/12/05 04:15:15;;;;;;;11.37;7.80;;;7.10;99.90;;;6.97;72.99;95825.31;5085138;28;21036;-56
2022/12/05 04:17:45;;;;;;;17.77;7.87;;;7.10;99.90;;;6.97;72.76;95821.84;5081496;28;20521;-56
2022/12/05 04:23:01;;;;;;;12.93;7.90;;;7.10;99.90;;;7.00;73.29;95819.03;5079264;28;20524;-54
2022/12/05 04:25:32;;;;;;;13.00;7.93;;;7.10;99.90;;;6.99;72.37;95814.78;5079228;28;20478;-54
2022/12/05 04:28:08;;;;;;;19.47;8.63;;;7.10;99.90;;;6.96;72.43;95822.81;5080094;28;20442;-54
2022/12/05 04:30:38;;;;;;;12.57;7.23;;;7.10;99.90;;;6.95;72.43;95826.34;5086619;28;20529;-55
2022/12/05 04:33:10;;;;;;;11.27;7.60;;;7.10;99.90;;;6.92;72.29;95826.53;5080683;28;20978;-57
2022/12/05 04:35:42;;;;;;;14.83;9.77;;;7.10;99.90;;;6.91;72.50;95824.84;5083468;28;20481;-55
2022/12/05 04:38:11;;;;;;;32.77;17.23;;;7.10;99.90;;;6.90;72.97;95825.78;5077924;28;20515;-56
2022/12/05 04:40:44;;;;;;;38.53;21.43;;;7.00;99.90;;;6.90;72.90;95831.03;5081194;28;20577;-56
2022/12/05 04:43:12;;;;;;;11.17;7.60;;;7.00;99.90;;;6.90;72.39;95834.47;5082657;28;20519;-55
2022/12/05 04:45:39;;;;;;;13.13;7.20;;;7.00;99.90;;;6.87;72.57;95844.28;5087899;28;20488;-56
2022/12/05 04:48:10;;;;;;;13.83;7.60;;;7.00;99.90;;;6.87;73.21;95841.69;5083396;28;20449;-55
2022/12/05 04:50:39;;;;;;;17.30;9.60;;;7.00;99.90;;;6.89;72.64;95839.78;5084957;28;20494;-55
2022/12/05 04:53:06;;;;;;;25.90;13.50;;;7.00;99.90;;;6.89;72.53;95845.03;5074281;28;20885;-55
2022/12/05 04:55:34;;;;;;;12.43;7.40;;;7.10;99.90;;;6.90;73.18;95838.88;5081273;28;20993;-55
2022/12/05 04:58:06;;;;;;;11.07;6.43;;;7.00;99.90;;;6.91;72.84;95840.53;5078001;28;20447;-57
2022/12/05 05:00:38;;;;;;;17.73;8.37;;;7.10;99.90;;;6.94;72.94;95842.97;5072707;28;20477;-54
2022/12/05 05:03:07;;;;;;;11.87;7.17;;;7.10;99.90;;;6.95;72.47;95845.47;5079328;28;20450;-57
2022/12/05 05:05:35;;;;;;;12.43;8.20;;;7.10;99.90;;;6.96;73.07;95849.78;5082397;28;20505;-54
2022/12/05 05:08:05;;;;;;;14.40;8.47;;;7.10;99.90;;;6.97;72.23;95846.25;5082335;28;20454;-57
2022/12/05 05:10:35;;;;;;;14.40;8.70;;;7.10;99.90;;;6.97;72.48;95858.47;5075986;28;20516;-55
2022/12/05 05:13:03;;;;;;;23.80;8.43;;;7.10;99.90;;;6.98;73.18;95857.53;5079567;28;20442;-56
2022/12/05 05:15:30;;;;;;;18.73;8.40;;;7.10;99.90;;;6.99;72.68;95859.25;5077266;28;20997;-53
2022/12/05 05:17:57;;;;;;;21.40;8.77;;;7.10;99.90;;;7.01;72.55;95859.97;5079108;28;20459;-54
2022/12/05 05:20:25;;;;;;;13.87;7.77;;;7.10;99.90;;;7.02;72.56;95864.28;5080174;28;20462;-55
2022/12/05 05:22:53;;;;;;;12.80;7.83;;;7.10;99.90;;;7.03;72.88;95872.97;5079021;28;20459;-58
2022/12/05 05:25:22;;;;;;;13.97;7.63;;;7.10;99.90;;;7.02;72.51;95872.13;5075078;28;20478;-54
2022/12/05 05:27:51;;;;;;;15.07;8.50;;;7.10;99.90;;;7.02;72.81;95869.50;5075008;28;20446;-56
2022/12/05 05:30:18;;;;;;;12.67;7.90;;;7.20;99.90;;;7.04;72.94;95867.63;5075002;28;20540;-53
2022/12/05 05:32:46;;;;;;;19.77;7.57;;;7.20;99.90;;;7.03;72.68;95872.97;5071013;28;20614;-53
2022/12/05 05:35:13;;;;;;;19.73;8.20;;;7.20;99.90;;;7.02;72.47;95869.50;5077881;28;20532;-54
2022/12/05 05:37:41;;;;;;;12.27;8.50;;;7.20;99.90;;;7.04;71.99;95872.88;5075457;28;20453;-55
2022/12/05 05:40:10;;;;;;;12.23;8.30;;;7.20;99.90;;;7.05;72.09;95871.94;5074217;28;21022;-54
2022/12/05 05:42:43;;;;;;;13.10;7.80;;;7.20;99.90;;;7.09;72.45;95875.19;5074889;28;20449;-54
2022/12/05 05:45:11;;;;;;;13.30;8.10;;;7.20;99.90;;;7.11;72.67;95874.19;5077116;28;20478;-56
2022/12/05 05:47:39;;;;;;;15.10;9.63;;;7.20;99.90;;;7.13;72.45;95877.53;5075562;28;20855;-55
2022/12/05 05:50:07;;;;;;;15.20;8.67;;;7.30;99.90;;;7.17;72.22;95875.56;5079385;28;20979;-54
2022/12/05 05:52:35;;;;;;;14.60;8.67;;;7.30;99.90;;;7.22;72.80;95881.38;5074006;28;20454;-59
2022/12/05 05:55:02;;;;;;;16.80;8.40;;;7.30;99.90;;;7.24;72.62;95883.91;5077307;28;20470;-55
2022/12/05 05:57:30;;;;;;;14.50;8.80;;;7.30;99.90;;;7.30;72.12;95888.75;5074729;28;20978;-56
2022/12/05 05:59:59;;;;;;;19.30;9.47;;;7.40;99.90;;;7.34;72.33;95885.00;5085138;28;20523;-56
2022/12/05 06:02:26;;;;;;;18.27;8.97;;;7.50;99.90;;;7.38;72.33;95888.28;5074588;28;20461;-55
2022/12/05 06:04:53;;;;;;;19.90;9.73;;;7.50;99.90;;;7.38;71.56;95886.50;5072730;28;20475;-55
2022/12/05 06:07:20;;;;;;;19.73;9.60;;;7.50;99.90;;;7.40;71.39;95884.63;5076011;28;20867;-55
2022/12/05 06:09:48;;;;;;;14.00;8.97;;;7.50;99.90;;;7.44;71.46;95885.28;5072918;28;20475;-55
2022/12/05 06:12:15;;;;;;;22.40;9.10;;;7.50;99.90;;;7.46;71.44;95884.22;5075154;28;20486;-55
2022/12/05 06:14:42;;;;;;;38.80;12.63;;;7.60;99.90;;;7.47;71.74;95890.31;5078689;28;20466;-58
2022/12/05 06:17:11;;;;;;;12.87;7.93;;;7.60;99.90;;;7.46;71.76;95897.31;5080178;28;20524;-55
2022/12/05 06:19:38;;;;;;;17.47;9.13;;;7.60;99.90;;;7.47;71.23;95891.16;5082588;28;20570;-55
2022/12/05 06:22:05;;;;;;;17.70;9.07;;;7.60;99.90;;;7.49;71.71;95894.50;5078641;28;20466;-58
2022/12/05 06:24:32;;;;;;;15.03;9.50;;;7.60;99.90;;;7.49;71.20;95891.91;5079317;28;20893;-56
2022/12/05 06:27:00;;;;;;;12.60;7.37;;;7.60;99.90;;;7.49;71.20;95889.28;5080462;28;20458;-57
2022/12/05 06:29:27;;;;;;;14.33;8.73;;;7.60;99.90;;;7.50;71.09;95885.72;5079252;28;20553;-56
2022/12/05 06:31:54;;;;;;;12.77;9.10;;;7.60;99.90;;;7.51;70.86;95884.81;5080414;28;20558;-56
2022/12/05 06:34:23;;;;;;;18.90;10.17;;;7.60;99.90;;;7.56;71.47;95894.13;5074858;28;20466;-56
2022/12/05 06:36:50;;;;;;;15.50;10.57;;;7.70;99.90;;;7.59;71.32;95896.56;5081443;28;21090;-56
2022/12/05 06:39:17;;;;;;;15.33;9.83;;;7.70;99.90;;;7.58;71.77;95897.50;5078329;28;20474;-55
2022/12/05 06:41:45;;;;;;;15.97;10.30;;;7.70;99.90;;;7.54;71.55;95895.09;5081807;28;20458;-55
2022/12/05 06:44:12;;;;;;;15.93;10.00;;;7.70;99.90;;;7.54;71.67;95896.84;5078934;28;20478;-55
2022/12/05 06:46:39;;;;;;;21.90;10.77;;;7.60;99.90;;;7.53;71.00;95896.00;5081151;28;20458;-55
2022/12/05 06:49:06;;;;;;;26.63;11.23;;;7.70;99.90;;;7.55;71.36;95890.69;5080348;28;20994;-56
2022/12/05 06:51:36;;;;;;;18.40;11.60;;;7.70;99.90;;;7.57;71.05;95899.25;5080633;28;20486;-56
2022/12/05 06:54:03;;;;;;;23.50;11.93;;;7.60;99.90;;;7.59;70.94;95905.28;5075979;28;20478;-54
2022/12/05 06:56:30;;;;;;;28.57;12.10;;;7.70;99.90;;;7.59;71.42;95899.16;5081532;28;20442;-56
2022/12/05 06:58:58;;;;;;;23.83;12.03;;;7.70;99.90;;;7.63;70.79;95892.81;5078270;28;20446;-58
2022/12/05 07:01:42;;;;;;;24.47;11.43;;;7.70;99.90;;;7.63;71.12;95900.69;5074658;28;20524;-54
2022/12/05 07:04:14;;;;;;;20.63;10.03;;;7.70;99.90;;;7.67;71.15;95902.16;5078054;28;20517;-57
2022/12/05 07:06:44;;;;;;;29.07;11.20;;;7.80;99.90;;;7.70;71.23;95908.03;5076891;28;20450;-56
2022/12/05 07:09:11;;;;;;;15.97;9.63;;;7.80;99.90;;;7.72;70.97;95907.94;5077590;28;21025;-55
2022/12/05 07:11:38;;;;;;;16.83;9.70;;;7.80;99.90;;;7.70;71.13;95897.56;5077399;28;20492;-56
2022/12/05 07:14:06;;;;;;;16.87;9.73;;;7.80;99.90;;;7.70;70.52;95907.22;5081578;28;20501;-56
2022/12/05 07:16:33;;;;;;;16.37;9.90;;;7.80;99.90;;;7.68;70.77;95903.84;5078272;28;20504;-55
2022/12/05 07:19:00;;;;;;;17.97;9.20;;;7.80;99.90;;;7.68;70.65;95909.06;5077319;28;20535;-56
2022/12/05 07:21:27;;;;;;;13.20;8.70;;;7.80;99.90;;;7.68;70.81;95909.06;5073743;28;20498;-57
2022/12/05 07:23:56;;;;;;;9.40;7.70;;;7.80;99.90;;;7.68;70.65;95911.69;5078157;28;20972;-57
2022/12/05 07:26:24;;;;;;;13.00;7.67;;;7.80;99.90;;;7.68;70.58;95909.06;5077980;28;20482;-55
2022/12/05 07:28:51;;;;;;;13.00;7.73;;;7.80;99.90;;;7.68;70.67;95909.94;5081497;28;20480;-55
2022/12/05 07:31:21;;;;;;;15.97;9.37;;;7.80;99.90;;;7.70;70.65;95915.06;5077237;28;20482;-57
2022/12/05 07:33:49;;;;;;;12.27;7.80;;;7.80;99.90;;;7.70;70.94;95908.03;5081381;28;20878;-56
2022/12/05 07:36:19;;;;;;;16.30;9.30;;;7.80;99.90;;;7.70;70.69;95918.53;5078293;28;20787;-56
2022/12/05 07:38:46;;;;;;;12.17;8.03;;;7.80;99.90;;;7.69;70.87;95911.59;5087187;28;20468;-55
2022/12/05 07:41:19;;;;;;;15.60;8.37;;;7.80;99.90;;;7.71;70.59;95919.34;5084039;28;20704;-55
2022/12/05 07:43:46;;;;;;;17.23;10.73;;;7.80;99.90;;;7.73;71.02;95920.13;5087820;28;20458;-56
2022/12/05 07:46:13;;;;;;;15.60;9.10;;;7.80;99.90;;;7.74;70.74;95919.16;5083873;28;20458;-56
2022/12/05 07:48:41;;;;;;;12.50;7.27;;;7.90;99.90;;;7.76;70.43;95916.44;5087907;28;20457;-55
2022/12/05 07:51:08;;;;;;;18.07;9.90;;;7.90;99.90;;;7.76;70.41;95917.31;5083230;28;20490;-55
2022/12/05 07:53:36;;;;;;;14.70;8.70;;;7.90;99.90;;;7.76;70.71;95906.84;5084388;28;20978;-56
2022/12/05 07:56:05;;;;;;;14.80;8.63;;;7.90;99.90;;;7.74;70.22;95918.31;5085786;28;20450;-57
2022/12/05 07:58:34;;;;;;;16.40;8.53;;;7.90;99.90;;;7.75;70.37;95909.53;5081402;28;20974;-57
2022/12/05 08:01:06;;;;;;;15.20;8.93;;;7.90;99.90;;;7.73;70.18;95909.63;5078734;28;20481;-56
2022/12/05 08:03:34;;;;;;;16.17;9.60;;;7.90;99.90;;;7.73;70.24;95912.25;5075589;28;20803;-55
2022/12/05 08:06:03;;;;;;;16.60;9.17;;;7.80;99.90;;;7.75;70.17;95912.16;5084619;28;20473;-55
2022/12/05 08:08:30;;;;;;;12.50;8.40;;;7.90;99.90;;;7.75;70.30;95923.47;5084611;28;20482;-56
2022/12/05 08:10:59;;;;;;;23.07;9.57;;;7.90;99.90;;;7.74;70.10;95924.41;5085259;28;20482;-55
2022/12/05 08:13:26;;;;;;;14.80;10.10;;;7.90;99.90;;;7.72;70.29;95927.09;5081591;28;20454;-56
2022/12/05 08:15:55;;;;;;;20.43;9.50;;;7.90;99.90;;;7.74;70.63;95921.78;5088223;28;20949;-56
2022/12/05 08:18:22;;;;;;;20.27;11.03;;;7.90;99.90;;;7.75;70.18;95931.31;5083825;28;20464;-56
2022/12/05 08:20:49;;;;;;;18.70;10.70;;;7.90;99.90;;;7.76;70.88;95930.41;5087505;28;20465;-55
2022/12/05 08:23:17;;;;;;;19.37;11.43;;;7.90;99.90;;;7.77;70.67;95923.38;5084021;28;21328;-55
2022/12/05 08:25:44;;;;;;;17.03;8.93;;;7.90;99.90;;;7.81;70.48;95925.69;5087158;28;20492;-56
2022/12/05 08:28:11;;;;;;;14.00;8.57;;;7.90;99.90;;;7.80;70.28;95929.25;5079439;28;21168;-53
2022/12/05 08:30:38;;;;;;;13.43;8.23;;;7.90;99.90;;;7.85;70.19;95929.81;5087075;28;20474;-56
2022/12/05 08:33:07;;;;;;;14.87;8.13;;;8.00;99.90;;;7.87;70.09;95925.31;5082313;28;20516;-55
2022/12/05 08:35:37;;;;;;;20.33;8.67;;;8.00;99.90;;;7.89;70.17;95918.19;5087762;28;20997;-55
2022/12/05 08:38:04;;;;;;;14.37;8.43;;;8.00;99.90;;;7.91;70.33;95918.09;5083552;28;20466;-57
2022/12/05 08:40:31;;;;;;;12.73;8.40;;;8.00;99.90;;;7.94;70.25;95917.06;5088027;28;20536;-55
2022/12/05 08:42:59;;;;;;;14.27;8.47;;;8.00;99.90;;;7.99;69.99;95922.84;5083571;28;21085;-56
2022/12/05 08:45:26;;;;;;;15.77;8.80;;;8.10;99.90;;;8.03;69.81;95913.88;5085512;28;20465;-56
2022/12/05 08:47:53;;;;;;;13.83;8.80;;;8.10;99.90;;;8.05;69.90;95909.34;5083362;28;20458;-56
2022/12/05 08:50:22;;;;;;;13.80;8.30;;;8.20;99.90;;;8.05;69.63;95919.84;5081240;28;20592;-58
2022/12/05 08:52:49;;;;;;;14.47;8.20;;;8.20;99.90;;;8.06;70.13;95918.91;5081615;28;20486;-56
2022/12/05 08:55:17;;;;;;;20.93;8.90;;;8.10;99.90;;;8.06;69.89;95924.97;5081453;28;20503;-56
2022/12/05 08:57:44;;;;;;;17.60;7.60;;;8.20;99.90;;;8.07;69.96;95924.03;5081867;28;20443;-57
2022/12/05 09:00:13;;;;;;;11.40;6.97;;;8.20;99.90;;;8.07;70.12;95921.44;5076850;28;20478;-55
2022/12/05 09:02:40;;;;;;;11.97;9.10;;;8.20;99.90;;;8.07;69.59;95915.31;5080941;28;20829;-57
2022/12/05 09:05:09;;;;;;;11.50;7.50;;;8.20;99.90;;;8.06;69.62;95918.91;5081029;28;20634;-56
2022/12/05 09:07:38;;;;;;;12.37;8.13;;;8.20;99.90;;;8.07;69.44;95920.56;5083383;28;20515;-55
2022/12/05 09:10:07;;;;;;;12.63;8.00;;;8.10;99.90;;;8.07;69.51;95931.91;5081137;28;20482;-54
2022/12/05 09:12:36;;;;;;;15.50;8.40;;;8.20;99.90;;;8.13;70.01;95925.41;5074225;28;20540;-56
2022/12/05 09:15:03;;;;;;;14.13;7.47;;;8.20;99.90;;;8.18;69.93;95923.34;5073980;28;20474;-55
2022/12/05 09:17:31;;;;;;;13.73;7.53;;;8.20;99.90;;;8.24;69.31;95919.47;5083807;28;20461;-55
2022/12/05 09:19:58;;;;;;;12.10;7.60;;;8.30;99.90;;;8.25;69.04;95914.13;5082934;28;20519;-54
2022/12/05 09:22:25;;;;;;;10.90;7.63;;;8.30;99.90;;;8.33;69.50;95911.03;5079526;28;21052;-57
2022/12/05 09:24:54;;;;;;;10.83;7.17;;;8.40;99.90;;;8.38;69.40;95908.09;5079532;28;20544;-56
2022/12/05 09:27:21;;;;;;;10.87;6.80;;;8.40;99.90;;;8.39;69.11;95907.16;5083381;28;20453;-56
2022/12/05 09:29:48;;;;;;;9.40;5.63;;;8.40;99.90;;;8.40;68.79;95904.44;5079472;28;20487;-54
2022/12/05 09:32:16;;;;;;;8.30;6.20;;;8.40;99.90;;;8.40;68.83;95912.31;5082296;28;20492;-57
2022/12/05 09:34:43;;;;;;;11.00;6.23;;;8.50;99.90;;;8.39;68.57;95899.31;5079796;28;20471;-57
2022/12/05 09:37:10;;;;;;;13.10;5.97;;;8.50;99.90;;;8.39;68.86;95894.06;5083394;28;20834;-57
2022/12/05 09:39:37;;;;;;;10.30;6.90;;;8.50;99.90;;;8.43;68.89;95898.16;5079221;28;20471;-55
2022/12/05 09:42:33;;;;;;;12.00;6.20;;;8.50;99.90;;;8.47;68.44;95890.97;5083469;28;20450;-54
2022/12/05 09:45:13;;;;;;;10.67;6.50;;;8.50;99.90;;;8.49;68.59;95883.81;5078613;28;20470;-54
2022/12/05 09:47:48;;;;;;;9.43;6.20;;;8.60;99.90;;;8.51;68.50;95882.78;5079158;28;20488;-58
2022/12/05 09:50:21;;;;;;;14.20;7.00;;;8.60;99.90;;;8.51;68.25;95881.97;5081767;28;21016;-56
2022/12/05 09:53:12;;;;;;;12.20;6.70;;;8.60;99.90;;;8.52;68.06;95881.00;5079585;28;20482;-55
2022/12/05 09:55:47;;;;;;;6.67;5.63;;;8.60;99.90;;;8.53;68.13;95880.06;5073361;28;20474;-54
2022/12/05 09:58:28;;;;;;;9.47;6.20;;;8.60;99.90;;;8.53;68.77;95880.91;5080438;28;20962;-57
2022/12/05 10:01:03;;;;;;;17.20;7.57;;;8.60;99.90;;;8.55;68.49;95876.41;5071311;28;20465;-56
2022/12/05 10:03:39;;;;;;;18.40;7.90;;;8.60;99.90;;;8.57;68.22;95871.91;5078000;28;20507;-56
2022/12/05 10:06:14;;;;;;;9.87;6.60;;;8.70;99.90;;;8.58;68.41;95870.09;5080286;28;20445;-56
2022/12/05 10:09:01;;;;;;;10.47;7.50;;;8.60;99.90;;;8.57;67.83;95869.28;5079599;28;20449;-56
2022/12/05 10:11:33;;;;;;;10.13;7.00;;;8.70;99.90;;;8.56;67.89;95869.38;5076194;28;20565;-55
2022/12/05 10:14:07;;;;;;;14.80;7.30;;;8.70;99.90;;;8.57;68.27;95866.66;5078249;28;20466;-56
2022/12/05 10:16:37;;;;;;;9.47;7.80;;;8.70;99.90;;;8.58;67.87;95863.09;5079815;28;20450;-57
2022/12/05 10:19:06;;;;;;;14.57;7.33;;;8.70;99.90;;;8.58;68.03;95867.47;5080816;28;20467;-56
2022/12/05 10:21:36;;;;;;;18.03;7.53;;;8.70;99.90;;;8.60;68.23;95871.69;5079014;28;21018;-53
2022/12/05 10:24:05;;;;;;;12.70;7.43;;;8.70;99.90;;;8.62;68.23;95861.09;5078859;28;20993;-56
2022/12/05 10:26:35;;;;;;;13.33;6.87;;;8.70;99.90;;;8.66;68.16;95859.97;5078558;28;20523;-57
2022/12/05 10:29:12;;;;;;;12.27;8.30;;;8.70;99.90;;;8.68;67.72;95855.44;5077382;28;20479;-53
2022/12/05 10:31:39;;;;;;;15.00;7.77;;;8.80;99.90;;;8.72;68.05;95863.94;5079226;28;20520;-57
2022/12/05 10:34:12;;;;;;;10.07;7.27;;;8.80;99.90;;;8.78;68.00;95860.88;5073957;28;20477;-56
2022/12/05 10:36:39;;;;;;;10.93;6.10;;;8.80;99.90;;;8.79;67.14;95855.53;5081163;28;20461;-57
2022/12/05 10:39:07;;;;;;;11.77;7.27;;;8.80;99.90;;;8.81;67.48;95850.19;5079833;28;20466;-54
2022/12/05 10:41:34;;;;;;;14.33;8.63;;;8.90;99.90;;;8.83;67.45;95847.47;5081216;28;20830;-56